Time;durP1;ratioP1;P1;durP2;ratioP2;P2;SDS_P1;SDS_P2;PMS_P1;PMS_P2;Temp;Humidity;BMP_temperature;BMP_pressure;BME280_temperature;BME280_humidity;BME280_pressure;Samples;Min_cycle;Max_cycle;Signal;HPM_P1;HPM_P2
2023/09/27 00:01:02;;;;;;;19.08;11.00;;;;;;;-145.63;53.73;39282.41;5027061;28;20022;-63
2023/09/27 00:03:28;;;;;;;17.20;10.68;;;;;;;-145.63;53.76;39317.59;5026672;28;20038;-63
2023/09/27 00:05:54;;;;;;;15.73;11.02;;;;;;;-145.63;53.73;39329.34;5012726;28;20029;-65
2023/09/27 00:08:20;;;;;;;18.73;11.10;;;;;;;-145.63;53.62;39305.88;5014949;28;20026;-65
2023/09/27 00:10:46;;;;;;;15.38;10.82;;;;;;;-145.63;53.80;39329.34;5029570;28;20041;-65
2023/09/27 00:13:11;;;;;;;16.42;11.23;;;;;;;-145.63;54.01;39290.22;5046597;28;20041;-64
2023/09/27 00:15:37;;;;;;;17.33;10.77;;;;;;;-145.63;54.07;39321.50;5026619;28;20033;-66
2023/09/27 00:18:04;;;;;;;16.73;11.35;;;;;;;-145.63;53.69;39321.50;5027479;28;20328;-64
2023/09/27 00:20:30;;;;;;;18.45;11.55;;;;;;;-145.63;53.56;39368.44;5035444;28;20026;-64
2023/09/27 00:22:56;;;;;;;18.98;11.85;;;;;;;-145.63;53.63;39290.22;5020559;28;20022;-66
2023/09/27 00:25:21;;;;;;;22.98;11.10;;;;;;;-145.63;53.82;39333.25;5006737;28;20072;-65
2023/09/27 00:27:47;;;;;;;15.93;10.40;;;;;;;-145.63;53.90;39343.03;5026752;28;20057;-65
2023/09/27 00:30:16;;;;;;;14.75;9.73;;;;;;;-145.63;53.67;39329.34;5016094;28;20200;-65
2023/09/27 00:32:46;;;;;;;14.88;9.98;;;;;;;-145.63;53.90;39325.41;5019842;28;20080;-66
2023/09/27 00:35:18;;;;;;;14.25;9.88;;;;;;;-145.63;53.97;39337.16;5018121;28;20030;-63
2023/09/27 00:37:48;;;;;;;15.38;10.15;;;;;;;-145.63;53.73;39329.34;5017354;28;20034;-66
2023/09/27 00:40:15;;;;;;;17.60;9.95;;;;;;;-145.63;53.85;39329.34;5026266;28;20214;-64
2023/09/27 00:42:40;;;;;;;17.55;10.05;;;;;;;-145.63;53.72;39307.81;5029964;28;20299;-65
2023/09/27 00:45:07;;;;;;;15.30;9.75;;;;;;;-145.63;53.57;39329.34;5030588;28;20026;-64
2023/09/27 00:47:35;;;;;;;17.88;10.45;;;;;;;-145.63;53.93;39335.19;5014924;28;20294;-64
2023/09/27 00:50:02;;;;;;;17.67;9.82;;;;;;;-145.63;53.92;39319.56;5012686;28;20064;-65
2023/09/27 00:52:31;;;;;;;17.05;9.25;;;;;;;-145.63;53.71;39323.47;5040954;28;20306;-65
2023/09/27 00:54:57;;;;;;;16.23;9.73;;;;;;;-145.63;53.85;39352.81;5025639;28;20183;-65
2023/09/27 00:57:23;;;;;;;15.02;9.93;;;;;;;-145.63;53.94;39292.19;5041047;28;20051;-63
2023/09/27 00:59:50;;;;;;;13.65;9.45;;;;;;;-145.63;54.11;39311.72;5041596;28;20218;-64
2023/09/27 01:02:16;;;;;;;16.90;10.18;;;;;;;-145.63;54.04;39341.06;5025206;28;20022;-65
2023/09/27 01:04:43;;;;;;;15.35;9.98;;;;;;;-145.63;53.96;39301.94;5021759;28;20251;-63
2023/09/27 01:07:09;;;;;;;17.40;9.98;;;;;;;-145.63;54.05;39339.13;5005951;28;20311;-65
2023/09/27 01:09:37;;;;;;;14.43;9.07;;;;;;;-145.63;53.69;39321.50;5024592;28;20056;-63
2023/09/27 01:12:03;;;;;;;14.85;9.55;;;;;;;-145.63;53.84;39339.13;5039432;28;20041;-65
2023/09/27 01:14:30;;;;;;;15.02;9.05;;;;;;;-145.63;53.69;39333.25;5033854;28;20040;-66
2023/09/27 01:16:55;;;;;;;14.30;9.40;;;;;;;-145.63;53.49;39337.16;5024706;28;20030;-65
2023/09/27 01:19:21;;;;;;;17.92;9.98;;;;;;;-145.63;53.54;39323.47;5025098;28;20085;-64
2023/09/27 01:21:47;;;;;;;14.95;10.05;;;;;;;-145.63;53.54;39300.00;5025206;28;20488;-63
2023/09/27 01:24:13;;;;;;;12.68;9.50;;;;;;;-145.63;53.59;39333.25;5009553;28;20061;-64
2023/09/27 01:26:39;;;;;;;15.05;9.75;;;;;;;-145.63;53.75;39329.34;5016986;28;20286;-65
2023/09/27 01:29:05;;;;;;;17.20;10.40;;;;;;;-145.63;53.82;39317.59;5021037;28;20042;-64
2023/09/27 01:31:31;;;;;;;13.45;10.18;;;;;;;-145.63;53.84;39313.69;5022866;28;20072;-65
2023/09/27 01:33:57;;;;;;;11.43;8.88;;;;;;;-145.63;53.62;39309.78;5005540;28;20037;-64
2023/09/27 01:36:23;;;;;;;15.32;10.13;;;;;;;-145.63;53.82;39325.41;5022199;28;20022;-65
2023/09/27 01:38:48;;;;;;;14.13;10.60;;;;;;;-145.63;53.84;39262.84;5012733;28;20234;-65
2023/09/27 01:41:14;;;;;;;16.30;10.05;;;;;;;-145.63;53.75;39317.59;5012890;28;20030;-63
2023/09/27 01:43:40;;;;;;;17.67;9.82;;;;;;;-145.63;53.78;39307.81;5021751;28;20045;-63
2023/09/27 01:46:05;;;;;;;20.55;10.73;;;;;;;-145.63;53.88;39309.78;5005335;28;20045;-65
2023/09/27 01:48:31;;;;;;;19.58;11.57;;;;;;;-145.63;53.62;39341.06;5005413;28;20022;-65
2023/09/27 01:50:57;;;;;;;15.88;10.25;;;;;;;-145.63;53.64;39305.88;5023794;28;20333;-64
2023/09/27 01:53:22;;;;;;;16.08;9.98;;;;;;;-145.63;54.02;39325.41;5035606;28;20025;-65
2023/09/27 01:55:48;;;;;;;16.98;11.68;;;;;;;-145.63;53.68;39307.81;5020407;28;20022;-65
2023/09/27 01:58:14;;;;;;;17.15;10.23;;;;;;;-145.63;53.61;39307.81;5005039;28;20030;-64
2023/09/27 02:00:40;;;;;;;14.65;10.23;;;;;;;-145.63;53.54;39364.53;5031120;28;20067;-64
2023/09/27 02:03:05;;;;;;;19.02;11.52;;;;;;;-145.63;53.76;39362.59;5044158;28;20025;-64
2023/09/27 02:05:31;;;;;;;15.40;11.00;;;;;;;-145.63;53.78;39350.84;5033034;28;20033;-64
2023/09/27 02:07:57;;;;;;;17.35;11.50;;;;;;;-145.63;53.94;39343.03;5019259;28;20022;-65
2023/09/27 02:10:23;;;;;;;18.27;12.00;;;;;;;-145.63;53.70;39323.47;5005134;28;20176;-64
2023/09/27 02:12:50;;;;;;;20.08;11.57;;;;;;;-145.63;53.96;39319.56;5024232;28;20022;-65
2023/09/27 02:15:16;;;;;;;16.42;10.00;;;;;;;-145.63;53.69;39313.69;5007786;28;20026;-64
2023/09/27 02:17:43;;;;;;;21.95;11.35;;;;;;;-145.63;53.95;39344.97;5016037;28;20104;-65
2023/09/27 02:20:13;;;;;;;18.52;11.73;;;;;;;-145.63;53.95;39360.63;5017393;28;20052;-65
2023/09/27 02:22:43;;;;;;;17.15;10.82;;;;;;;-145.63;54.09;39366.50;5006901;28;20303;-64
2023/09/27 02:25:11;;;;;;;22.15;13.50;;;;;;;-145.63;53.65;39360.63;5024234;28;20033;-65
2023/09/27 02:27:38;;;;;;;14.95;10.75;;;;;;;-145.63;53.77;39331.28;5005801;28;20050;-65
2023/09/27 02:30:11;;;;;;;16.13;10.55;;;;;;;-145.63;53.52;39368.44;5015468;28;20030;-65
2023/09/27 02:32:40;;;;;;;16.73;10.80;;;;;;;-145.63;53.91;39327.38;5025582;28;20026;-65
2023/09/27 02:35:06;;;;;;;16.13;11.13;;;;;;;-145.63;53.82;39321.50;5011404;28;20045;-64
2023/09/27 02:37:32;;;;;;;17.20;11.50;;;;;;;-145.63;54.06;39343.03;5023149;28;20029;-66
2023/09/27 02:39:58;;;;;;;21.05;12.38;;;;;;;-145.63;53.92;39346.94;5015341;28;20333;-65
2023/09/27 02:42:25;;;;;;;20.13;12.25;;;;;;;-145.63;53.72;39348.88;5020315;28;20092;-65
2023/09/27 02:44:50;;;;;;;19.73;11.88;;;;;;;-145.63;53.94;39315.66;5023703;28;20026;-64
2023/09/27 02:47:16;;;;;;;16.60;11.00;;;;;;;-145.63;53.60;39327.38;5013536;28;20030;-65
2023/09/27 02:49:42;;;;;;;19.05;11.65;;;;;;;-145.63;53.88;39329.34;5020875;28;20246;-64
2023/09/27 02:52:07;;;;;;;17.83;11.50;;;;;;;-145.63;53.75;39346.94;5023867;28;20026;-65
2023/09/27 02:54:33;;;;;;;14.27;11.32;;;;;;;-145.63;54.03;39329.34;5005624;28;20038;-64
2023/09/27 02:56:59;;;;;;;15.75;11.18;;;;;;;-145.63;54.37;39350.84;5016953;28;20186;-64
2023/09/27 02:59:25;;;;;;;16.02;11.52;;;;;;;-145.63;54.43;39337.16;5015050;28;20278;-64
2023/09/27 03:01:50;;;;;;;20.65;12.60;;;;;;;-145.63;54.43;39327.38;5020124;28;20151;-64
2023/09/27 03:04:16;;;;;;;15.88;11.60;;;;;;;-145.63;54.57;39352.81;5023301;28;20034;-65
2023/09/27 03:06:42;;;;;;;17.50;11.18;;;;;;;-145.63;54.71;39358.66;5004491;28;20208;-65
2023/09/27 03:09:11;;;;;;;16.50;11.88;;;;;;;-145.63;54.46;39352.81;5017889;28;20036;-66
2023/09/27 03:11:39;;;;;;;21.60;12.50;;;;;;;-145.63;54.01;39337.16;5024120;28;20034;-64
2023/09/27 03:14:04;;;;;;;15.32;11.38;;;;;;;-145.63;54.36;39344.97;5017774;28;20173;-65
2023/09/27 03:16:30;;;;;;;19.52;12.23;;;;;;;-145.63;53.98;39348.88;5004200;28;20326;-65
2023/09/27 03:18:59;;;;;;;19.45;11.38;;;;;;;-145.63;53.86;39301.94;5023773;28;20034;-65
2023/09/27 03:21:26;;;;;;;17.08;12.63;;;;;;;-145.63;54.11;39344.97;5006567;28;20250;-66
2023/09/27 03:23:54;;;;;;;15.05;11.90;;;;;;;-145.63;54.35;39343.03;5015643;28;20029;-64
2023/09/27 03:26:23;;;;;;;16.65;12.52;;;;;;;-145.63;54.45;39389.97;5015238;28;20327;-64
2023/09/27 03:28:50;;;;;;;22.02;12.05;;;;;;;-145.63;54.29;39348.88;5006495;28;20022;-64
2023/09/27 03:31:16;;;;;;;17.48;11.82;;;;;;;-145.63;54.48;39472.09;5020926;28;20096;-64
2023/09/27 03:33:42;;;;;;;16.80;12.23;;;;;;;-145.63;54.51;39325.41;5022118;28;20045;-65
2023/09/27 03:36:08;;;;;;;18.40;11.68;;;;;;;-145.63;54.48;39362.59;5010425;28;20030;-63
2023/09/27 03:38:33;;;;;;;18.42;12.38;;;;;;;-145.63;54.59;39376.28;5011903;28;20041;-65
2023/09/27 03:40:59;;;;;;;16.00;11.88;;;;;;;-145.63;54.30;39339.13;5020620;28;20133;-65
2023/09/27 03:43:24;;;;;;;19.60;12.10;;;;;;;-145.63;54.45;39350.84;5022797;28;20052;-63
2023/09/27 03:45:51;;;;;;;21.13;13.23;;;;;;;-145.63;54.19;39337.16;5002201;28;20026;-65
2023/09/27 03:48:19;;;;;;;20.67;13.23;;;;;;;-145.63;54.49;39327.38;5018147;28;20046;-65
2023/09/27 03:50:45;;;;;;;19.60;13.35;;;;;;;-145.63;54.34;39337.16;5019594;28;20026;-64
2023/09/27 03:53:11;;;;;;;18.08;12.18;;;;;;;-145.63;54.00;39307.81;5029818;28;20288;-65
2023/09/27 03:55:37;;;;;;;15.55;12.68;;;;;;;-145.63;54.55;39317.59;5004469;28;20022;-64
2023/09/27 03:58:03;;;;;;;17.75;13.25;;;;;;;-145.63;55.03;39368.44;5023114;28;20030;-64
2023/09/27 04:00:29;;;;;;;17.50;11.55;;;;;;;-145.63;54.68;39358.66;5011428;28;20022;-63
2023/09/27 04:02:55;;;;;;;20.63;12.73;;;;;;;-145.63;54.65;39341.06;5022867;28;20037;-62
2023/09/27 04:05:23;;;;;;;20.48;13.05;;;;;;;-145.63;54.97;39354.75;5015723;28;20081;-63
2023/09/27 04:07:49;;;;;;;18.10;12.93;;;;;;;-145.63;55.09;39337.16;5011089;28;20096;-63
2023/09/27 04:10:16;;;;;;;19.10;13.50;;;;;;;-145.63;54.93;39343.03;5003251;28;20230;-63
2023/09/27 04:12:42;;;;;;;17.92;13.05;;;;;;;-145.63;55.21;39341.06;5017099;28;20089;-62
2023/09/27 04:15:09;;;;;;;22.17;12.95;;;;;;;-145.63;54.58;39319.56;5015291;28;20025;-63
2023/09/27 04:17:36;;;;;;;19.15;12.82;;;;;;;-145.63;54.82;39352.81;5016456;28;20041;-62
2023/09/27 04:20:08;;;;;;;19.92;12.82;;;;;;;-145.63;54.76;39348.88;5007703;28;20195;-63
2023/09/27 04:22:34;;;;;;;19.35;12.25;;;;;;;-145.63;54.84;39372.34;5021663;28;20061;-62
2023/09/27 04:25:00;;;;;;;17.80;12.80;;;;;;;-145.63;54.91;39337.16;5003253;28;20294;-63
2023/09/27 04:27:27;;;;;;;19.75;12.80;;;;;;;-145.63;54.99;39309.78;5014694;28;20045;-65
2023/09/27 04:29:52;;;;;;;17.70;13.60;;;;;;;-145.63;55.18;39292.19;5007418;28;20030;-65
2023/09/27 04:32:18;;;;;;;21.90;13.35;;;;;;;-145.63;55.10;39335.19;5015095;28;20029;-66
2023/09/27 04:34:43;;;;;;;19.13;13.02;;;;;;;-145.63;55.30;39309.78;5023031;28;20172;-63
2023/09/27 04:37:09;;;;;;;20.15;12.80;;;;;;;-145.63;55.09;39350.84;5027558;28;20025;-62
2023/09/27 04:39:35;;;;;;;18.88;12.50;;;;;;;-145.63;55.17;39319.56;5026898;28;20052;-62
2023/09/27 04:42:00;;;;;;;19.77;12.95;;;;;;;-145.63;55.27;39311.72;5023760;28;20374;-63
2023/09/27 04:44:26;;;;;;;17.50;13.02;;;;;;;-145.63;55.01;39307.81;5025657;28;20030;-64
2023/09/27 04:46:52;;;;;;;19.55;12.13;;;;;;;-145.63;55.39;39303.91;5022861;28;20030;-63
2023/09/27 04:49:17;;;;;;;16.83;12.52;;;;;;;-145.63;55.44;39321.50;5005958;28;20041;-63
2023/09/27 04:51:43;;;;;;;18.83;12.75;;;;;;;-145.63;55.26;39286.31;5035684;28;20209;-63
2023/09/27 04:54:08;;;;;;;25.45;13.82;;;;;;;-145.63;55.32;39286.31;5032137;28;20079;-64
2023/09/27 04:56:34;;;;;;;31.42;13.52;;;;;;;-145.63;54.97;39323.47;5016744;28;20042;-62
2023/09/27 04:59:05;;;;;;;25.48;14.10;;;;;;;-145.63;55.28;39274.56;5016739;28;20034;-62
2023/09/27 05:01:31;;;;;;;26.73;14.98;;;;;;;-145.63;54.86;39305.88;5025335;28;20054;-63
2023/09/27 05:03:57;;;;;;;28.83;14.35;;;;;;;-145.63;54.99;39300.00;5025492;28;20089;-65
2023/09/27 05:06:23;;;;;;;19.70;13.77;;;;;;;-145.63;55.67;39321.50;5009814;28;20080;-63
2023/09/27 05:08:50;;;;;;;19.55;14.02;;;;;;;-145.63;55.41;39307.81;5007827;28;20026;-64
2023/09/27 05:11:18;;;;;;;20.15;13.00;;;;;;;-145.63;55.25;39284.34;5014905;28;20030;-63
2023/09/27 05:13:48;;;;;;;20.35;13.93;;;;;;;-145.63;55.10;39301.94;5023487;28;20029;-62
2023/09/27 05:16:14;;;;;;;27.35;15.02;;;;;;;-145.63;55.01;39270.66;5007131;28;20315;-63
2023/09/27 05:18:41;;;;;;;24.30;14.90;;;;;;;-145.63;54.61;39305.88;5007985;28;20053;-63
2023/09/27 05:21:07;;;;;;;19.58;13.02;;;;;;;-145.63;54.63;39301.94;5018610;28;20030;-65
2023/09/27 05:23:33;;;;;;;16.42;13.07;;;;;;;-145.63;54.52;39278.47;5016449;28;20034;-64
2023/09/27 05:25:59;;;;;;;18.35;13.95;;;;;;;-145.63;53.67;39274.56;5005454;28;20042;-63
2023/09/27 05:28:27;;;;;;;17.35;15.05;;;;;;;-145.63;54.42;39241.31;5005207;28;20050;-64
2023/09/27 05:30:53;;;;;;;18.45;14.60;;;;;;;-145.63;53.92;39251.09;5028899;28;20089;-64
2023/09/27 05:33:18;;;;;;;25.80;16.63;;;;;;;-145.63;53.18;39239.38;5029370;28;20341;-65
2023/09/27 05:35:44;;;;;;;25.13;17.20;;;;;;;-145.63;53.27;39239.38;5024609;28;20030;-63
2023/09/27 05:38:10;;;;;;;28.10;16.90;;;;;;;-145.63;53.11;39247.19;5025060;28;20021;-62
2023/09/27 05:40:35;;;;;;;22.58;16.00;;;;;;;-145.63;52.29;39243.28;5024732;28;20034;-63
2023/09/27 05:43:02;;;;;;;21.67;17.25;;;;;;;-145.63;52.46;39249.16;5024847;28;20033;-64
2023/09/27 05:45:28;;;;;;;22.98;15.20;;;;;;;-145.63;52.26;39247.19;5024447;28;20026;-64
2023/09/27 05:47:54;;;;;;;22.25;16.58;;;;;;;-145.63;52.31;39245.25;5019317;28;20078;-63
2023/09/27 05:50:20;;;;;;;22.75;16.83;;;;;;;-145.63;51.91;39243.28;5024661;28;20353;-64
2023/09/27 05:52:46;;;;;;;20.70;16.40;;;;;;;-145.63;51.69;39215.91;5043140;28;20025;-64
2023/09/27 05:55:13;;;;;;;18.98;14.77;;;;;;;-145.63;51.12;39204.16;5024355;28;20021;-64
2023/09/27 05:57:38;;;;;;;23.80;16.80;;;;;;;-145.63;51.58;39208.06;5007720;28;20199;-65
2023/09/27 06:00:31;;;;;;;21.92;16.42;;;;;;;-145.63;51.41;39212.00;5019114;28;20037;-63
2023/09/27 06:02:56;;;;;;;22.55;17.08;;;;;;;-145.63;51.33;39143.53;5044286;28;20048;-64
2023/09/27 06:05:22;;;;;;;26.42;18.13;;;;;;;-145.63;50.91;39155.28;5037127;28;20030;-63
2023/09/27 06:07:48;;;;;;;24.88;17.95;;;;;;;-145.63;50.98;39151.38;5021423;28;20041;-64
2023/09/27 06:10:14;;;;;;;25.17;16.50;;;;;;;-145.63;50.09;39079.00;5004838;28;20019;-64
2023/09/27 06:12:40;;;;;;;27.17;17.98;;;;;;;-145.63;49.36;39137.69;5025128;28;20353;-63
2023/09/27 06:15:06;;;;;;;21.90;15.68;;;;;;;-145.63;49.50;39141.59;5014459;28;20038;-64
2023/09/27 06:17:32;;;;;;;22.27;16.75;;;;;;;-145.63;49.43;39118.13;5016456;28;20057;-64
2023/09/27 06:19:58;;;;;;;20.27;16.30;;;;;;;-145.63;48.82;39116.16;5007589;28;20053;-64
2023/09/27 06:22:23;;;;;;;21.38;15.18;;;;;;;-145.63;48.52;39082.91;5024165;28;20337;-64
2023/09/27 06:24:49;;;;;;;22.55;16.40;;;;;;;-145.63;47.95;39133.75;5037673;28;20025;-64
2023/09/27 06:27:16;;;;;;;32.90;24.65;;;;;;;-145.63;48.16;39063.34;5042825;28;20049;-64
2023/09/27 06:29:42;;;;;;;28.27;21.58;;;;;;;-145.63;47.74;39047.72;5028606;28;20030;-64
2023/09/27 06:32:08;;;;;;;26.77;18.23;;;;;;;-145.63;47.34;39043.81;5036122;28;20017;-63
2023/09/27 06:34:35;;;;;;;18.98;15.98;;;;;;;-145.63;46.68;39035.97;5023822;28;20033;-64
2023/09/27 06:37:01;;;;;;;20.40;16.52;;;;;;;-145.63;46.25;38983.19;5018060;28;20049;-63
2023/09/27 06:39:26;;;;;;;22.42;15.18;;;;;;;-145.63;45.67;38957.75;5023462;28;20294;-63
2023/09/27 06:41:52;;;;;;;25.00;15.80;;;;;;;-145.63;44.35;38926.47;5022953;28;20075;-64
2023/09/27 06:44:18;;;;;;;22.50;14.68;;;;;;;-145.63;43.62;38903.00;5023702;28;20022;-64
2023/09/27 06:46:44;;;;;;;18.88;15.15;;;;;;;-145.63;43.41;38871.72;5023264;28;20017;-63
2023/09/27 06:49:12;;;;;;;20.25;15.25;;;;;;;-145.63;42.19;38912.78;5003154;28;20030;-64
2023/09/27 06:51:38;;;;;;;25.98;14.88;;;;;;;-145.63;42.56;38848.25;5020458;28;20288;-64
2023/09/27 06:54:05;;;;;;;21.05;14.45;;;;;;;-145.63;42.14;38828.69;5015572;28;20037;-64
2023/09/27 06:56:31;;;;;;;22.58;15.65;;;;;;;-145.63;41.01;38813.03;5014963;28;20034;-64
2023/09/27 06:58:56;;;;;;;17.58;14.25;;;;;;;-145.63;40.59;38836.50;5006338;28;20077;-64
2023/09/27 07:01:24;;;;;;;23.98;13.43;;;;;;;-145.63;41.40;38859.97;5023025;28;20025;-63
2023/09/27 07:03:50;;;;;;;16.75;13.07;;;;;;;-145.63;40.63;38881.50;5023736;28;20226;-63
2023/09/27 07:06:16;;;;;;;17.17;12.48;;;;;;;-145.63;40.44;38850.19;5010112;28;20097;-64
2023/09/27 07:08:44;;;;;;;21.63;13.07;;;;;;;-145.63;40.48;38883.44;5012399;28;20103;-64
2023/09/27 07:11:09;;;;;;;19.60;13.50;;;;;;;-145.63;40.83;38895.19;5026101;28;20030;-65
2023/09/27 07:13:39;;;;;;;19.02;13.40;;;;;;;-145.63;40.51;38877.56;5017111;28;20084;-66
2023/09/27 07:16:21;;;;;;;19.63;12.55;;;;;;;-145.63;40.68;38908.88;5003856;28;20322;-63
2023/09/27 07:18:50;;;;;;;17.90;11.98;;;;;;;-145.63;41.02;38903.00;5021053;28;20352;-64
2023/09/27 07:21:24;;;;;;;15.93;11.18;;;;;;;-145.63;40.96;38891.28;5010380;28;20030;-64
2023/09/27 07:23:52;;;;;;;18.08;10.60;;;;;;;-145.63;40.75;38748.50;5013130;28;20095;-63
2023/09/27 07:26:18;;;;;;;15.90;11.75;;;;;;;-145.63;41.04;38877.56;5020340;28;20058;-63
2023/09/27 07:28:47;;;;;;;12.95;10.68;;;;;;;-145.63;40.30;38879.53;5023378;28;20057;-64
2023/09/27 07:31:17;;;;;;;16.65;10.45;;;;;;;-145.63;39.28;38949.94;5030720;28;20032;-64
2023/09/27 07:33:55;;;;;;;14.60;9.70;;;;;;;-145.63;39.95;38842.38;5010756;28;20104;-64
2023/09/27 07:36:24;;;;;;;13.15;10.15;;;;;;;-145.63;40.03;38924.50;5016300;28;20306;-64
2023/09/27 07:38:50;;;;;;;15.00;10.18;;;;;;;-145.63;39.77;38879.53;5022170;28;20038;-64
2023/09/27 07:41:16;;;;;;;10.23;8.25;;;;;;;-145.63;40.43;38891.28;5023021;28;20088;-64
2023/09/27 07:43:42;;;;;;;21.52;9.80;;;;;;;-145.63;40.15;38891.28;5008030;28;20026;-64
2023/09/27 07:46:08;;;;;;;14.60;9.40;;;;;;;-145.63;40.17;38871.72;5017045;28;20184;-63
2023/09/27 07:48:38;;;;;;;13.18;8.50;;;;;;;-145.63;39.74;38842.38;5023344;28;20033;-63
2023/09/27 07:51:14;;;;;;;13.63;8.98;;;;;;;-145.63;39.24;38856.06;5020563;28;20052;-64
2023/09/27 07:53:40;;;;;;;12.80;7.97;;;;;;;-145.63;38.01;38881.50;5013402;28;20038;-64
2023/09/27 07:56:10;;;;;;;11.63;7.55;;;;;;;-145.63;39.27;38914.72;5016614;28;20077;-64
2023/09/27 07:58:36;;;;;;;11.15;7.80;;;;;;;-145.63;39.56;38850.19;5019364;28;20029;-64
2023/09/27 08:01:03;;;;;;;16.23;7.80;;;;;;;-145.63;39.24;38854.13;5028627;28;20191;-63
2023/09/27 08:03:29;;;;;;;13.55;7.53;;;;;;;-145.63;39.33;38865.84;5035833;28;20030;-63
2023/09/27 08:05:54;;;;;;;15.50;8.55;;;;;;;-145.63;37.91;38848.25;5022658;28;20026;-63
2023/09/27 08:08:21;;;;;;;12.18;8.27;;;;;;;-145.63;38.84;38844.34;5016152;28;20026;-65
2023/09/27 08:10:49;;;;;;;16.60;9.00;;;;;;;-145.63;38.16;38867.81;5009554;28;20034;-64
2023/09/27 08:13:17;;;;;;;13.98;8.57;;;;;;;-145.63;37.80;38844.34;5025753;28;20030;-65
2023/09/27 08:15:51;;;;;;;12.52;8.00;;;;;;;-145.63;37.72;38895.19;5029772;28;20041;-63
2023/09/27 08:18:18;;;;;;;15.88;9.70;;;;;;;-145.63;38.08;38889.31;5032075;28;20026;-63
2023/09/27 08:20:44;;;;;;;15.85;8.77;;;;;;;-145.63;37.87;38822.81;5018470;28;20080;-64
2023/09/27 08:23:10;;;;;;;14.63;7.07;;;;;;;-145.63;37.72;38813.03;5010559;28;20367;-65
2023/09/27 08:25:37;;;;;;;11.05;5.88;;;;;;;-145.63;37.92;38795.44;5025912;28;20033;-63
2023/09/27 08:28:05;;;;;;;7.78;5.70;;;;;;;-145.63;37.78;38793.50;5006580;28;20105;-63
2023/09/27 08:30:31;;;;;;;7.07;5.70;;;;;;;-145.63;36.87;38809.13;5022652;28;20211;-63
2023/09/27 08:32:57;;;;;;;10.68;6.88;;;;;;;-145.63;36.74;38785.66;5035808;28;20017;-62
2023/09/27 08:35:23;;;;;;;8.35;5.43;;;;;;;-145.63;36.85;38754.38;5021909;28;20030;-64
2023/09/27 08:37:48;;;;;;;8.52;5.10;;;;;;;-145.63;36.53;38721.13;5045429;28;20036;-63
2023/09/27 08:40:16;;;;;;;9.20;4.85;;;;;;;-145.63;34.98;38807.19;5034841;28;20056;-62
2023/09/27 08:42:43;;;;;;;8.90;4.35;;;;;;;-145.63;35.10;38644.88;5029612;28;20032;-63
2023/09/27 08:45:14;;;;;;;8.50;4.18;;;;;;;-145.63;34.42;38619.47;5021737;28;20028;-64
2023/09/27 08:47:44;;;;;;;11.27;4.63;;;;;;;-145.63;34.93;38535.38;5025497;28;20037;-63
2023/09/27 08:50:15;;;;;;;7.38;4.18;;;;;;;-145.63;33.37;38564.72;5024720;28;20254;-63
2023/09/27 08:52:45;;;;;;;9.30;4.22;;;;;;;-145.63;32.98;38545.16;5045431;28;20041;-63
2023/09/27 08:55:12;;;;;;;8.50;4.78;;;;;;;-145.63;32.59;38463.03;5006780;28;20030;-63
2023/09/27 08:57:47;;;;;;;6.85;4.40;;;;;;;-145.63;31.40;38480.63;5020252;28;20045;-62
2023/09/27 09:00:19;;;;;;;7.60;4.57;;;;;;;-145.63;31.59;38414.16;5019043;28;20071;-61
2023/09/27 09:02:56;;;;;;;6.00;3.80;;;;;;;-145.63;31.33;38390.69;5009422;28;20073;-62
2023/09/27 09:05:23;;;;;;;5.50;3.45;;;;;;;-145.63;30.28;38382.88;5010371;28;20049;-62
2023/09/27 09:07:49;;;;;;;7.15;3.53;;;;;;;-145.63;30.15;38380.91;5020844;28;20257;-63
2023/09/27 09:10:18;;;;;;;4.63;3.47;;;;;;;-145.63;30.31;38404.38;5008030;28;20034;-63
2023/09/27 09:12:47;;;;;;;6.00;3.13;;;;;;;-145.63;30.33;38322.25;5016441;28;20021;-65
2023/09/27 09:15:30;;;;;;;4.75;3.28;;;;;;;-145.63;29.78;38279.22;5015058;28;20122;-62
2023/09/27 09:17:59;;;;;;;3.92;3.25;;;;;;;-145.63;30.65;38193.19;5023196;28;20214;-65
2023/09/27 09:20:32;;;;;;;4.97;3.28;;;;;;;-145.63;30.12;38251.84;5022373;28;20022;-63
2023/09/27 09:23:02;;;;;;;5.03;3.15;;;;;;;-145.63;30.21;38416.09;5022877;28;20018;-64
2023/09/27 09:25:29;;;;;;;4.70;3.53;;;;;;;-145.63;31.08;38375.03;5018704;28;20100;-63
2023/09/27 09:28:07;;;;;;;6.20;3.85;;;;;;;-145.63;30.95;38461.06;5022234;28;20046;-65
2023/09/27 09:30:37;;;;;;;8.38;3.75;;;;;;;-145.63;31.33;38466.94;5022476;28;20054;-64
2023/09/27 09:33:16;;;;;;;6.13;3.53;;;;;;;-145.63;31.85;38578.41;5015491;28;20033;-64
2023/09/27 09:35:42;;;;;;;5.32;2.90;;;;;;;-145.63;32.27;38515.81;5017359;28;20271;-63
2023/09/27 09:38:07;;;;;;;3.50;2.78;;;;;;;-145.63;32.78;38549.06;5024410;28;20332;-64
2023/09/27 09:40:34;;;;;;;5.47;2.70;;;;;;;-145.63;33.09;38568.63;5014744;28;20495;-66
2023/09/27 09:43:00;;;;;;;3.97;2.70;;;;;;;-145.63;33.04;38529.50;5020541;28;20034;-63
2023/09/27 09:45:27;;;;;;;4.85;2.83;;;;;;;-145.63;33.19;38539.28;5011569;28;20030;-63
2023/09/27 09:47:53;;;;;;;5.25;2.97;;;;;;;-145.63;33.66;38562.75;5011389;28;20031;-66
2023/09/27 09:50:19;;;;;;;4.53;2.80;;;;;;;-145.63;33.08;38562.75;5021696;28;20038;-65
2023/09/27 09:52:57;;;;;;;4.93;2.78;;;;;;;-145.63;33.16;38607.72;5018743;28;20034;-62
2023/09/27 09:55:26;;;;;;;5.00;3.03;;;;;;;-145.63;33.55;37858.88;5018064;28;20364;-64
2023/09/27 09:58:14;;;;;;;3.53;2.80;;;;;;;-145.63;33.34;38615.53;5016961;28;20029;-63
2023/09/27 10:00:49;;;;;;;5.68;3.00;;;;;;;-145.63;33.88;38672.25;5018761;28;20064;-62
2023/09/27 10:03:20;;;;;;;7.78;2.95;;;;;;;-145.63;33.69;38639.00;5023535;28;20194;-63
2023/09/27 10:05:50;;;;;;;6.53;3.70;;;;;;;-145.63;33.28;38621.41;5022198;28;20021;-63
2023/09/27 10:08:20;;;;;;;7.22;4.30;;;;;;;-145.63;33.28;38633.16;5022206;28;20034;-63
2023/09/27 10:10:47;;;;;;;6.88;3.55;;;;;;;-145.63;33.95;38637.06;5022035;28;20029;-65
2023/09/27 10:13:14;;;;;;;5.40;3.90;;;;;;;-145.63;34.13;38619.47;5022141;28;20306;-65
2023/09/27 10:15:42;;;;;;;5.15;3.10;;;;;;;-145.63;34.06;38619.47;5023296;28;20033;-64
2023/09/27 10:18:23;;;;;;;6.00;3.15;;;;;;;-145.63;34.06;38621.41;5022272;28;20024;-63
2023/09/27 10:21:01;;;;;;;4.63;3.03;;;;;;;-145.63;33.47;38619.47;5022070;28;20037;-64
2023/09/27 10:23:34;;;;;;;7.40;4.28;;;;;;;-145.63;33.36;38644.88;5023195;28;20454;-65
2023/09/27 10:26:28;;;;;;;6.13;4.30;;;;;;;-145.63;33.17;38672.25;5020997;28;20050;-63
2023/09/27 10:29:21;;;;;;;8.48;4.35;;;;;;;-145.63;34.04;38666.38;5005696;28;20034;-63
2023/09/27 10:31:56;;;;;;;6.80;4.85;;;;;;;-145.63;33.51;38637.06;5022584;28;20099;-63
2023/09/27 10:34:27;;;;;;;8.73;4.60;;;;;;;-145.63;34.64;38629.22;5022134;28;20042;-64
2023/09/27 10:36:55;;;;;;;8.00;5.28;;;;;;;-145.63;33.45;38652.69;5021698;28;20041;-63
2023/09/27 10:39:21;;;;;;;9.00;5.03;;;;;;;-145.63;33.83;38668.34;5008882;28;20106;-64
2023/09/27 10:41:49;;;;;;;8.63;4.93;;;;;;;-145.63;34.42;38656.59;5017418;28;20049;-63
2023/09/27 10:44:30;;;;;;;5.63;4.45;;;;;;;-145.63;33.28;38656.59;5021831;28;20046;-63
2023/09/27 10:47:03;;;;;;;7.20;4.28;;;;;;;-145.63;33.35;38637.06;5040032;28;20068;-63
2023/09/27 10:49:37;;;;;;;8.48;4.80;;;;;;;-145.63;33.46;38617.50;5018790;28;20021;-63
2023/09/27 10:52:04;;;;;;;10.27;5.07;;;;;;;-145.63;33.85;38648.78;5036487;28;20036;-65
2023/09/27 10:54:29;;;;;;;7.75;5.65;;;;;;;-145.63;34.50;38646.84;5019865;28;20026;-64
2023/09/27 10:56:58;;;;;;;10.60;5.55;;;;;;;-145.63;33.75;38631.19;5022855;28;20049;-63
2023/09/27 10:59:27;;;;;;;7.53;5.15;;;;;;;-145.63;33.75;38605.78;5012942;28;20032;-64
2023/09/27 11:01:58;;;;;;;6.60;5.18;;;;;;;-145.63;34.44;38611.63;5033859;28;20029;-65
2023/09/27 11:04:25;;;;;;;7.53;5.20;;;;;;;-145.63;33.96;38633.16;5010771;28;20057;-64
2023/09/27 11:06:52;;;;;;;6.68;5.28;;;;;;;-145.63;33.95;38652.69;5018207;28;20022;-64
2023/09/27 11:09:23;;;;;;;9.25;5.43;;;;;;;-145.63;33.66;38672.25;5007559;28;20034;-64